Aérodrome :
LOGIN :

S'inscrire | Disclaimer

   EN    FR    IT 

 










Légende :    VFR   VFR Marginal   IFR   IFR Intensif   IFR Très Intensif
Visi : 
Plafond : 
>= 8 km
>= 3000ft
5 à 8 km
1000 à 3000 ft
1500m à 5 km
500 à 1000 ft
800 à 1500m
200 à 500 ft
< 800m
< 200 ft
Symboles :   Orages  Brouillard  Fortes neiges  Fortes précipitations  Vent > 20 kt
SIGMETs :   Divers  Orages  Givrage  Turbulence  Onde Orograph.  Cendres Volcan.






- Altitude de l'aérodrome : 7 ft
- Code IATA : ESH


EGKA - Shoreham

DERNIER METAR :
  • 271250Z 35015KT 9999 SCT036 14/08 Q1011

METARs EXPIRÉS :
  • 271220Z 35017KT 9999 SCT037 13/07 Q1011
  • 271150Z 34015G25KT 9999 FEW029 SCT046 13/07 Q1011
  • 271120Z 34016G26KT 9999 FEW025 SCT042 13/08 Q1011
  • 271050Z 34016G26KT 9999 FEW025 SCT042 13/07 Q1010
  • 271020Z 34020G30KT 9999 SCT021 13/07 Q1010

TAF TAF EGKA
Valide du 27 à 12h jusqu'au 27 à 19h UTC


271057Z 2712/2719 34020G30KT 9999 BKN022
BECMG 2712/2715 34015KT
ATIS : +44 1273 467 372



MET'MAP, la Météo Aéronautique d'un coup d'oeil ! - Copyright ORBIFLY Décembre 2007 - Disclaimer

ORBIFLY MET'MAP TEAM :

Programmation & Développement : Alexandra Zaïnal
Sur une idée originale de : Baudouin d'Aumeries
Assistance à la programmation : Marc-Olivier Méhu
Soutien technique & logistique : Manuel Goepfert

Contact : metmap@orbifly.com




SOURCES & CREDITS :

   NOAA